Time;durP1;ratioP1;P1;durP2;ratioP2;P2;SDS_P1;SDS_P2;PMS_P1;PMS_P2;Temp;Humidity;BMP_temperature;BMP_pressure;BME280_temperature;BME280_humidity;BME280_pressure;Samples;Min_cycle;Max_cycle;Signal;HPM_P1;HPM_P2
2022/04/22 00:00:20;;;;;;;5.80;5.20;;;10.80;44.20;;;;;;20602;6818;335608;-71
2022/04/22 00:02:46;;;;;;;6.30;5.80;;;10.80;43.50;;;;;;20593;6818;344334;-72
2022/04/22 00:05:12;;;;;;;6.35;5.95;;;11.50;42.60;;;;;;20582;6818;276820;-71
2022/04/22 00:07:37;;;;;;;6.00;5.70;;;11.50;42.60;;;;;;20602;6818;278524;-71
2022/04/22 00:10:05;;;;;;;6.37;5.97;;;11.80;41.70;;;;;;20596;6818;307630;-71
2022/04/22 00:12:29;;;;;;;6.00;5.60;;;12.00;41.90;;;;;;20588;6818;306662;-72
2022/04/22 00:14:55;;;;;;;6.10;5.70;;;12.10;41.50;;;;;;20597;6818;323729;-71
2022/04/22 00:17:20;;;;;;;6.20;5.70;;;12.10;41.50;;;;;;20574;6816;306808;-71
2022/04/22 00:19:47;;;;;;;5.57;5.07;;;11.90;41.60;;;;;;20807;6817;116896;-71
2022/04/22 00:22:12;;;;;;;5.03;4.73;;;11.90;41.30;;;;;;20811;6817;117331;-71
2022/04/22 00:24:39;;;;;;;6.30;5.70;;;11.50;42.50;;;;;;20600;6818;277351;-72
2022/04/22 00:27:04;;;;;;;5.43;5.13;;;11.50;42.50;;;;;;20790;6818;126758;-72
2022/04/22 00:29:30;;;;;;;6.40;5.90;;;11.40;42.70;;;;;;20597;6818;277316;-71
2022/04/22 00:31:56;;;;;;;6.00;5.70;;;11.40;42.70;;;;;;20804;6818;116956;-72
2022/04/22 00:34:22;;;;;;;6.05;5.55;;;11.30;42.50;;;;;;20810;6818;120038;-72
2022/04/22 00:36:47;;;;;;;5.70;5.30;;;11.00;42.60;;;;;;20807;6818;119136;-71
2022/04/22 00:39:14;;;;;;;6.43;6.03;;;10.80;42.80;;;;;;20576;6818;306790;-72
2022/04/22 00:41:39;;;;;;;5.75;5.35;;;10.90;43.60;;;;;;20809;6818;121381;-72
2022/04/22 00:44:05;;;;;;;6.37;5.97;;;10.90;43.20;;;;;;20599;6818;340193;-71
2022/04/22 00:46:31;;;;;;;6.80;6.40;;;11.30;43.30;;;;;;20593;6818;309588;-71
2022/04/22 00:48:57;;;;;;;6.10;5.73;;;11.30;43.30;;;;;;20790;6818;121014;-72
2022/04/22 00:51:22;;;;;;;5.68;5.18;;;11.20;43.00;;;;;;20811;6818;117367;-72
2022/04/22 00:53:52;;;;;;;5.73;5.27;;;10.90;43.10;;;;;;20811;6818;117657;-71
2022/04/22 00:56:18;;;;;;;6.80;6.30;;;10.60;43.30;;;;;;20598;6818;305275;-71
2022/04/22 00:58:43;;;;;;;6.62;6.22;;;10.80;44.20;;;;;;20592;6818;313306;-72
2022/04/22 01:01:09;;;;;;;6.68;6.28;;;11.10;43.90;;;;;;20572;6818;307136;-72
2022/04/22 01:03:35;;;;;;;6.97;6.57;;;11.30;43.40;;;;;;20594;6818;277672;-72
2022/04/22 01:11:35;;;;;;;6.83;5.93;;;11.20;43.30;;;;;;20804;6818;117232;-71
2022/04/22 01:14:01;;;;;;;6.70;6.30;;;11.00;43.10;;;;;;20779;6818;117123;-71
2022/04/22 01:16:26;;;;;;;6.70;6.30;;;10.70;43.40;;;;;;20589;6818;307166;-72
2022/04/22 01:18:53;;;;;;;6.33;5.87;;;10.80;44.20;;;;;;20807;6818;117451;-72
2022/04/22 01:21:18;;;;;;;6.93;6.43;;;10.70;43.90;;;;;;20568;6818;304537;-72
2022/04/22 01:23:45;;;;;;;7.50;7.00;;;10.80;44.30;;;;;;20585;6818;336629;-72
2022/04/22 01:26:11;;;;;;;6.43;6.03;;;11.00;44.00;;;;;;20804;6818;117838;-71
2022/04/22 01:28:36;;;;;;;7.22;6.82;;;10.90;43.80;;;;;;20576;6816;311601;-71
2022/04/22 01:31:02;;;;;;;7.40;6.80;;;10.90;44.20;;;;;;20573;6817;277274;-72
2022/04/22 01:33:27;;;;;;;7.10;6.70;;;11.10;44.00;;;;;;20588;6817;310656;-71
2022/04/22 01:35:53;;;;;;;6.40;6.00;;;11.30;43.80;;;;;;20802;6818;117161;-72
2022/04/22 01:38:18;;;;;;;6.85;6.37;;;11.10;43.60;;;;;;20803;6818;117326;-71
2022/04/22 01:40:44;;;;;;;7.40;6.80;;;10.70;43.90;;;;;;20806;6818;116988;-71
2022/04/22 01:43:09;;;;;;;7.60;7.00;;;10.40;44.10;;;;;;20575;6818;340962;-72
2022/04/22 01:45:35;;;;;;;7.30;6.80;;;10.50;44.90;;;;;;20806;6818;117145;-71
2022/04/22 01:48:01;;;;;;;7.53;7.03;;;10.40;44.60;;;;;;20599;6818;306730;-71
2022/04/22 01:50:26;;;;;;;7.40;6.87;;;10.60;45.10;;;;;;20805;6818;117177;-72
2022/04/22 01:52:52;;;;;;;7.60;7.15;;;10.50;44.70;;;;;;20600;6818;336231;-71
2022/04/22 01:55:17;;;;;;;7.00;6.60;;;10.60;45.20;;;;;;20790;6818;117163;-72
2022/04/22 01:57:44;;;;;;;7.93;7.43;;;10.40;44.80;;;;;;20597;6818;306727;-71
2022/04/22 02:00:10;;;;;;;7.20;6.70;;;10.50;45.30;;;;;;20803;6818;117483;-71
2022/04/22 02:02:36;;;;;;;6.70;6.20;;;10.40;45.00;;;;;;20800;6818;117809;-71
2022/04/22 02:05:01;;;;;;;6.90;6.40;;;10.10;45.10;;;;;;20785;6818;126838;-71
2022/04/22 02:07:27;;;;;;;6.80;6.40;;;9.90;46.40;;;;;;20800;6818;117595;-72
2022/04/22 02:09:52;;;;;;;6.80;6.35;;;9.70;46.60;;;;;;20801;6818;117478;-71
2022/04/22 02:12:19;;;;;;;7.90;7.40;;;9.80;47.50;;;;;;20586;6818;307175;-71
2022/04/22 02:14:44;;;;;;;7.10;6.60;;;9.80;47.50;;;;;;20800;6818;116826;-72
2022/04/22 02:17:11;;;;;;;7.87;7.27;;;10.10;46.20;;;;;;20572;6818;306608;-71
2022/04/22 02:19:40;;;;;;;7.30;6.80;;;10.10;46.20;;;;;;20803;6818;117126;-72
2022/04/22 02:22:04;;;;;;;8.23;7.73;;;10.00;45.60;;;;;;20584;6818;278641;-71
2022/04/22 02:24:30;;;;;;;7.60;7.10;;;10.20;46.10;;;;;;20799;6818;117017;-72
2022/04/22 02:29:42;;;;;;;8.40;7.80;;;10.20;45.60;;;;;;20801;6818;117157;-72
2022/04/22 02:32:08;;;;;;;7.80;7.30;;;10.20;45.60;;;;;;20802;6818;121580;-72
2022/04/22 02:34:33;;;;;;;7.63;7.10;;;9.90;46.70;;;;;;20795;6818;117111;-72
2022/04/22 02:37:00;;;;;;;8.10;7.60;;;9.90;47.60;;;;;;20572;6818;308038;-72
2022/04/22 02:39:25;;;;;;;7.63;7.13;;;9.90;47.60;;;;;;20804;6818;117243;-72
2022/04/22 02:47:22;;;;;;;8.53;7.93;;;10.10;46.00;;;;;;20808;6818;117099;-71
2022/04/22 02:49:47;;;;;;;8.03;7.47;;;9.90;47.10;;;;;;20809;6818;117491;-71
2022/04/22 02:52:13;;;;;;;9.25;8.65;;;9.70;47.30;;;;;;20597;6818;314926;-71
2022/04/22 02:54:38;;;;;;;8.90;8.30;;;9.90;47.90;;;;;;20592;6818;279974;-71
2022/04/22 02:57:04;;;;;;;9.50;8.90;;;10.30;46.40;;;;;;20576;6818;307623;-71
2022/04/22 02:59:30;;;;;;;8.77;8.00;;;10.60;45.60;;;;;;20798;6818;117208;-71
2022/04/22 03:01:55;;;;;;;8.80;8.10;;;10.50;45.30;;;;;;20797;6818;119863;-71
2022/04/22 03:04:21;;;;;;;7.70;7.20;;;10.00;45.90;;;;;;20800;6818;121239;-71
2022/04/22 03:06:47;;;;;;;8.60;7.90;;;10.00;45.90;;;;;;20799;6818;117188;-71
2022/04/22 03:09:13;;;;;;;8.27;7.62;;;9.80;47.20;;;;;;20786;6818;117329;-71
2022/04/22 03:11:38;;;;;;;8.90;8.30;;;9.70;47.40;;;;;;20590;6818;307222;-71
2022/04/22 03:14:05;;;;;;;9.80;9.07;;;9.90;47.70;;;;;;20589;6818;311855;-71
2022/04/22 03:16:29;;;;;;;9.87;9.27;;;10.40;46.20;;;;;;20591;6818;278843;-71
2022/04/22 03:18:55;;;;;;;45.67;40.90;;;10.70;45.40;;;;;;20805;6818;117226;-71
2022/04/22 03:21:22;;;;;;;8.48;7.97;;;10.60;45.10;;;;;;20782;6818;123547;-71
2022/04/22 03:23:47;;;;;;;10.03;9.33;;;10.40;45.80;;;;;;20586;6818;307758;-71
2022/04/22 03:26:12;;;;;;;9.27;8.53;;;10.40;45.70;;;;;;20808;6818;117368;-72
2022/04/22 03:28:38;;;;;;;10.18;9.45;;;10.30;45.50;;;;;;20587;6818;303283;-72
2022/04/22 03:31:03;;;;;;;10.23;9.43;;;10.50;45.60;;;;;;20572;6818;306190;-71
2022/04/22 03:33:30;;;;;;;9.53;8.83;;;10.60;44.60;;;;;;20804;6818;118386;-71
2022/04/22 03:35:55;;;;;;;10.80;10.10;;;10.60;45.00;;;;;;20598;6818;307170;-71
2022/04/22 03:38:21;;;;;;;10.07;9.27;;;10.70;45.20;;;;;;20803;6818;117270;-71
2022/04/22 03:40:47;;;;;;;11.45;10.65;;;10.50;45.00;;;;;;20588;6818;306849;-71
2022/04/22 03:43:12;;;;;;;11.48;10.68;;;10.60;45.40;;;;;;20572;6818;307619;-71
2022/04/22 03:45:38;;;;;;;10.10;9.30;;;10.70;45.10;;;;;;20806;6818;117500;-71
2022/04/22 03:48:07;;;;;;;16.15;14.55;;;10.30;45.50;;;;;;20804;6818;117409;-71
2022/04/22 03:50:33;;;;;;;13.43;12.43;;;10.20;45.40;;;;;;20584;6818;311858;-71
2022/04/22 03:52:58;;;;;;;12.63;11.63;;;10.40;45.90;;;;;;20576;6816;310091;-71
2022/04/22 03:55:24;;;;;;;11.07;10.18;;;10.60;45.30;;;;;;20802;6817;117451;-71
2022/04/22 04:00:36;;;;;;;12.40;11.53;;;10.20;45.60;;;;;;20594;6818;277774;-72
2022/04/22 04:03:01;;;;;;;12.83;11.93;;;10.30;45.80;;;;;;20571;6818;310228;-72
2022/04/22 04:05:26;;;;;;;11.00;10.25;;;10.60;45.50;;;;;;20803;6818;117883;-72
2022/04/22 04:07:52;;;;;;;11.43;10.48;;;10.40;45.30;;;;;;20812;6818;117884;-71
2022/04/22 04:15:57;;;;;;;13.50;12.40;;;9.50;47.70;;;;;;20590;6818;325507;-72
2022/04/22 04:18:23;;;;;;;12.57;11.57;;;9.70;48.00;;;;;;20807;6818;117606;-72
2022/04/22 04:23:34;;;;;;;13.17;12.03;;;9.90;47.90;;;;;;20809;6818;117983;-72
2022/04/22 04:26:00;;;;;;;11.60;10.70;;;9.60;47.20;;;;;;20811;6818;117182;-71
2022/04/22 04:28:29;;;;;;;12.67;11.67;;;9.60;47.70;;;;;;20806;6818;121170;-72
2022/04/22 04:30:58;;;;;;;12.77;11.70;;;9.40;48.00;;;;;;20803;6818;117741;-72
2022/04/22 04:33:23;;;;;;;15.00;13.90;;;9.30;48.10;;;;;;20593;6818;277601;-72
2022/04/22 04:35:50;;;;;;;15.47;14.23;;;9.50;48.60;;;;;;20586;6818;307197;-72
2022/04/22 04:38:14;;;;;;;15.10;14.00;;;10.00;47.10;;;;;;20587;6818;309424;-72
2022/04/22 04:40:41;;;;;;;15.53;14.33;;;10.50;45.90;;;;;;20588;6818;340518;-72
2022/04/22 04:43:06;;;;;;;14.10;13.00;;;10.50;45.90;;;;;;20776;6818;119146;-72
2022/04/22 04:45:32;;;;;;;14.97;13.77;;;10.40;45.60;;;;;;20592;6818;277794;-72
2022/04/22 04:47:58;;;;;;;14.07;12.77;;;10.40;46.00;;;;;;20796;6818;117972;-72
2022/04/22 04:50:23;;;;;;;16.23;14.73;;;10.20;45.90;;;;;;20590;6818;278068;-72
2022/04/22 04:52:49;;;;;;;16.60;15.30;;;10.30;46.20;;;;;;20586;6818;335916;-72
2022/04/22 04:55:15;;;;;;;16.53;15.23;;;10.60;45.90;;;;;;20566;6818;307763;-72
2022/04/22 04:57:41;;;;;;;15.90;14.53;;;10.80;45.60;;;;;;20792;6818;117707;-72
2022/04/22 05:00:06;;;;;;;14.80;13.38;;;10.60;45.50;;;;;;20798;6818;117306;-72
2022/04/22 05:02:35;;;;;;;16.08;14.87;;;10.30;45.90;;;;;;20583;6818;328149;-71
2022/04/22 05:05:00;;;;;;;14.73;13.53;;;10.30;46.40;;;;;;20778;6816;118562;-71
2022/04/22 05:07:25;;;;;;;17.12;15.73;;;10.30;46.30;;;;;;20585;6817;306720;-71
2022/04/22 05:09:52;;;;;;;17.17;15.77;;;10.60;46.10;;;;;;20597;6818;315024;-71
2022/04/22 05:12:17;;;;;;;15.03;13.73;;;10.60;46.10;;;;;;20811;6818;117735;-71
2022/04/22 05:14:46;;;;;;;15.03;13.70;;;10.50;46.00;;;;;;20800;6818;118100;-71
2022/04/22 05:17:08;;;;;;;17.90;16.50;;;10.20;46.30;;;;;;20571;6818;307406;-71
2022/04/22 05:19:35;;;;;;;17.00;15.32;;;10.20;46.50;;;;;;20802;6818;118075;-71
2022/04/22 05:22:00;;;;;;;16.17;14.87;;;10.30;46.60;;;;;;20576;6818;335840;-71
2022/04/22 05:24:26;;;;;;;14.85;13.55;;;10.40;46.90;;;;;;20806;6818;117461;-71
2022/04/22 05:26:52;;;;;;;15.47;14.07;;;10.30;47.50;;;;;;20799;6818;117277;-71
2022/04/22 05:34:49;;;;;;;16.17;14.77;;;11.00;46.40;;;;;;20810;6818;117570;-72
2022/04/22 05:37:14;;;;;;;15.80;14.40;;;10.90;46.00;;;;;;20788;6818;117917;-72
2022/04/22 05:39:43;;;;;;;16.98;15.38;;;10.70;46.20;;;;;;20813;6818;117380;-72
2022/04/22 05:42:06;;;;;;;17.70;16.10;;;10.60;46.50;;;;;;20805;6818;123197;-71
2022/04/22 05:44:31;;;;;;;19.20;17.60;;;10.50;46.60;;;;;;20593;6818;337085;-72
2022/04/22 05:46:57;;;;;;;17.20;15.80;;;10.70;47.00;;;;;;20578;6818;335867;-73
2022/04/22 05:49:22;;;;;;;19.73;18.02;;;11.10;46.60;;;;;;20602;6818;281573;-72
2022/04/22 05:51:49;;;;;;;15.07;13.67;;;11.40;45.80;;;;;;20812;6818;117590;-71
2022/04/22 05:54:14;;;;;;;15.80;14.30;;;11.30;45.70;;;;;;20814;6818;116354;-71
2022/04/22 05:56:40;;;;;;;17.62;16.23;;;11.20;46.10;;;;;;20604;6818;305856;-71
2022/04/22 05:59:06;;;;;;;16.03;14.73;;;11.30;46.00;;;;;;20797;6818;117900;-71
2022/04/22 06:01:32;;;;;;;19.57;17.90;;;11.50;45.70;;;;;;20606;6818;336264;-71
2022/04/22 06:03:57;;;;;;;19.03;17.43;;;11.50;45.70;;;;;;20597;6818;322397;-71
2022/04/22 06:06:23;;;;;;;18.52;17.02;;;11.80;45.50;;;;;;20598;6818;307666;-71
2022/04/22 06:11:35;;;;;;;19.43;17.83;;;11.90;44.70;;;;;;20601;6818;295282;-72
2022/04/22 06:14:00;;;;;;;17.57;16.07;;;12.00;44.70;;;;;;20595;6818;310570;-72
2022/04/22 06:16:26;;;;;;;17.00;15.47;;;12.10;44.60;;;;;;20820;6816;117461;-72
2022/04/22 06:18:53;;;;;;;20.30;18.60;;;12.00;44.70;;;;;;20593;6817;317105;-72
2022/04/22 06:21:18;;;;;;;21.13;19.43;;;12.00;44.60;;;;;;20579;6817;309974;-72
2022/04/22 06:23:44;;;;;;;18.08;16.42;;;12.20;44.40;;;;;;20814;6818;118207;-71
2022/04/22 06:26:09;;;;;;;18.67;17.05;;;12.00;44.20;;;;;;20820;6818;116509;-72
2022/04/22 06:28:36;;;;;;;20.67;18.87;;;11.80;45.40;;;;;;20601;6818;328935;-72
2022/04/22 06:31:01;;;;;;;20.37;18.43;;;11.70;45.00;;;;;;20799;6818;118047;-72
2022/04/22 06:33:27;;;;;;;19.13;17.30;;;11.70;45.00;;;;;;20818;6818;117437;-72
2022/04/22 06:35:53;;;;;;;19.03;17.33;;;11.50;45.30;;;;;;20809;6818;117540;-72
2022/04/22 06:38:18;;;;;;;20.03;17.97;;;11.40;45.40;;;;;;20814;6818;117521;-72
2022/04/22 06:46:17;;;;;;;19.90;18.00;;;11.90;45.30;;;;;;20816;6818;118157;-72
2022/04/22 06:48:43;;;;;;;18.33;16.73;;;12.00;45.10;;;;;;20821;6818;117535;-72
2022/04/22 06:51:08;;;;;;;18.97;17.20;;;12.00;45.40;;;;;;20798;6818;121845;-72
2022/04/22 06:53:34;;;;;;;20.40;18.60;;;12.00;45.50;;;;;;20601;6818;312223;-72
2022/04/22 06:56:01;;;;;;;19.75;18.05;;;12.30;45.20;;;;;;20599;6818;278520;-72
2022/04/22 06:58:26;;;;;;;19.53;17.63;;;12.80;44.20;;;;;;20809;6818;117522;-72
2022/04/22 07:00:52;;;;;;;66.70;53.77;;;13.10;44.10;;;;;;20799;6818;117593;-72
2022/04/22 07:03:18;;;;;;;67.03;41.17;;;13.10;44.10;;;;;;20794;6818;117598;-72
2022/04/22 07:05:46;;;;;;;18.57;16.77;;;13.10;44.20;;;;;;20815;6818;118465;-72
2022/04/22 07:08:13;;;;;;;17.57;15.97;;;13.20;44.80;;;;;;20808;6818;117496;-72
2022/04/22 07:10:38;;;;;;;20.25;18.65;;;13.20;44.10;;;;;;20595;6818;311430;-72
2022/04/22 07:13:04;;;;;;;18.92;17.27;;;13.60;42.90;;;;;;20795;6818;117942;-72
2022/04/22 07:15:29;;;;;;;18.23;16.53;;;13.70;42.70;;;;;;20809;6818;118155;-72
2022/04/22 07:17:55;;;;;;;21.45;19.55;;;13.60;42.80;;;;;;20602;6818;310617;-72
2022/04/22 07:20:20;;;;;;;20.63;19.00;;;13.90;42.30;;;;;;20601;6818;277405;-72
2022/04/22 07:22:46;;;;;;;19.80;18.20;;;14.30;41.90;;;;;;20594;6818;306890;-72
2022/04/22 07:25:12;;;;;;;17.80;16.30;;;14.70;41.70;;;;;;20791;6818;117692;-72
2022/04/22 07:27:37;;;;;;;17.97;16.30;;;14.80;41.80;;;;;;20815;6816;117435;-72
2022/04/22 07:30:03;;;;;;;20.37;18.45;;;14.70;41.90;;;;;;20598;6817;340634;-72
2022/04/22 07:32:29;;;;;;;19.30;17.60;;;15.00;41.30;;;;;;20782;6817;117353;-72
2022/04/22 07:34:55;;;;;;;20.23;18.58;;;15.20;41.10;;;;;;20592;6818;337212;-72
2022/04/22 07:37:20;;;;;;;18.10;16.70;;;15.40;40.30;;;;;;20794;6818;118298;-72
2022/04/22 07:39:47;;;;;;;17.43;16.03;;;15.50;40.90;;;;;;20814;6818;118404;-72
2022/04/22 07:42:14;;;;;;;18.30;16.60;;;15.40;40.70;;;;;;20812;6818;123915;-72
2022/04/22 07:47:24;;;;;;;18.03;16.53;;;15.40;40.80;;;;;;20815;6818;117529;-72
2022/04/22 07:49:51;;;;;;;19.63;18.13;;;15.40;40.80;;;;;;20594;6818;306794;-72
2022/04/22 07:52:16;;;;;;;19.70;18.30;;;16.20;39.30;;;;;;20593;6818;336022;-72
2022/04/22 07:54:42;;;;;;;24.30;22.03;;;16.20;39.30;;;;;;20812;6818;117435;-72
2022/04/22 07:57:08;;;;;;;20.65;19.05;;;16.40;39.50;;;;;;20580;6818;305037;-72
2022/04/22 07:59:33;;;;;;;20.33;18.73;;;16.70;39.10;;;;;;20597;6818;306866;-72
2022/04/22 08:01:59;;;;;;;18.02;16.52;;;17.10;38.40;;;;;;20809;6818;117520;-72
2022/04/22 08:04:25;;;;;;;17.40;16.08;;;17.00;38.20;;;;;;20811;6818;117384;-72
2022/04/22 08:06:50;;;;;;;17.73;16.27;;;17.00;38.20;;;;;;20804;6818;118004;-72
2022/04/22 08:09:16;;;;;;;19.30;17.83;;;16.80;38.30;;;;;;20570;6818;462973;-72
2022/04/22 08:11:43;;;;;;;19.90;18.40;;;17.00;38.10;;;;;;20594;6818;306819;-72
2022/04/22 08:14:07;;;;;;;21.13;19.40;;;17.40;36.90;;;;;;20592;6818;312019;-72
2022/04/22 08:16:33;;;;;;;18.23;16.80;;;17.70;37.20;;;;;;20810;6818;117343;-72
2022/04/22 08:18:58;;;;;;;17.83;16.33;;;17.70;37.60;;;;;;20792;6818;117644;-73
2022/04/22 08:21:24;;;;;;;19.83;18.13;;;17.70;37.00;;;;;;20592;6818;307653;-72
2022/04/22 08:23:50;;;;;;;18.90;16.97;;;17.70;37.00;;;;;;20814;6818;117585;-72
2022/04/22 08:26:16;;;;;;;20.03;18.40;;;17.70;37.10;;;;;;20603;6818;278185;-72
2022/04/22 08:28:43;;;;;;;20.07;18.53;;;18.20;36.80;;;;;;20599;6818;307288;-72
2022/04/22 08:31:07;;;;;;;19.47;17.80;;;18.20;36.80;;;;;;20790;6818;124293;-71
2022/04/22 08:33:33;;;;;;;19.98;18.35;;;18.20;36.90;;;;;;20605;6818;277631;-71
2022/04/22 08:35:59;;;;;;;18.37;16.97;;;18.40;36.20;;;;;;20814;6818;117746;-73
2022/04/22 08:38:24;;;;;;;19.25;17.85;;;18.50;36.10;;;;;;20604;6816;277014;-71
2022/04/22 08:40:50;;;;;;;18.97;16.97;;;18.60;36.10;;;;;;20815;6817;117278;-71
2022/04/22 08:43:15;;;;;;;19.10;17.70;;;18.60;36.40;;;;;;20584;6817;277754;-71
2022/04/22 08:45:41;;;;;;;19.35;17.83;;;18.70;35.70;;;;;;20586;6818;311019;-71
2022/04/22 08:50:55;;;;;;;18.83;17.35;;;19.30;35.70;;;;;;20596;6818;336576;-71
2022/04/22 08:53:24;;;;;;;19.47;17.83;;;19.60;34.60;;;;;;20567;6818;307562;-72
2022/04/22 08:55:55;;;;;;;17.57;16.07;;;19.70;34.40;;;;;;20798;6818;117948;-71
2022/04/22 08:58:15;;;;;;;16.33;15.10;;;19.70;34.70;;;;;;20793;6818;123662;-71
2022/04/22 09:00:41;;;;;;;16.83;15.63;;;19.50;33.70;;;;;;20594;6818;276959;-69
2022/04/22 09:03:09;;;;;;;18.73;17.33;;;19.50;33.70;;;;;;20577;6818;282644;-71
2022/04/22 09:05:36;;;;;;;18.27;16.90;;;19.70;33.70;;;;;;20584;6818;307206;-71
2022/04/22 09:07:58;;;;;;;17.80;16.50;;;19.90;34.10;;;;;;20547;6818;306774;-71
2022/04/22 09:10:23;;;;;;;16.23;14.97;;;20.10;34.20;;;;;;20800;6818;117222;-71
2022/04/22 09:12:50;;;;;;;16.93;15.60;;;20.00;34.10;;;;;;20598;6818;278974;-71
2022/04/22 09:15:15;;;;;;;16.13;14.93;;;20.10;34.60;;;;;;20783;6818;117590;-71
2022/04/22 09:17:40;;;;;;;14.32;13.18;;;20.10;34.30;;;;;;20815;6818;121533;-71
2022/04/22 09:20:06;;;;;;;14.75;13.73;;;19.90;34.20;;;;;;20595;6818;310782;-71
2022/04/22 09:22:34;;;;;;;15.33;14.13;;;19.90;32.60;;;;;;20581;6818;283504;-71
2022/04/22 09:24:57;;;;;;;15.93;14.83;;;20.20;32.00;;;;;;20574;6818;306365;-72
2022/04/22 09:27:30;;;;;;;14.43;13.33;;;20.40;32.10;;;;;;20800;6818;117916;-71
2022/04/22 09:29:55;;;;;;;14.63;13.62;;;20.20;32.40;;;;;;20591;6818;340709;-71
2022/04/22 09:32:21;;;;;;;13.37;12.47;;;20.10;32.20;;;;;;20808;6818;117301;-71
2022/04/22 09:34:47;;;;;;;15.52;14.45;;;20.10;32.20;;;;;;20550;6818;309877;-71
2022/04/22 09:42:57;;;;;;;12.83;11.93;;;20.30;32.70;;;;;;20805;6818;117768;-72
2022/04/22 09:45:33;;;;;;;13.43;12.63;;;20.20;32.90;;;;;;20587;6818;336302;-71
2022/04/22 09:47:59;;;;;;;13.80;12.90;;;20.20;31.90;;;;;;20587;6818;277320;-71
2022/04/22 09:50:37;;;;;;;13.83;12.93;;;20.40;31.30;;;;;;20590;6816;306806;-71
2022/04/22 09:53:03;;;;;;;13.13;12.33;;;20.50;31.70;;;;;;20574;6817;276408;-71
2022/04/22 09:55:28;;;;;;;13.87;12.47;;;20.50;31.40;;;;;;20791;6817;117445;-71
2022/04/22 09:57:57;;;;;;;14.03;13.13;;;20.40;31.60;;;;;;20585;6818;307147;-71
2022/04/22 10:00:22;;;;;;;13.40;12.50;;;20.30;31.60;;;;;;20803;6818;117506;-71
2022/04/22 10:02:49;;;;;;;14.55;13.52;;;20.20;31.80;;;;;;20589;6818;311310;-71
2022/04/22 10:05:13;;;;;;;13.90;12.75;;;20.20;31.60;;;;;;20571;6818;307279;-71
2022/04/22 10:07:42;;;;;;;13.50;12.50;;;20.30;32.60;;;;;;20600;6818;306396;-71
2022/04/22 10:10:05;;;;;;;13.52;12.60;;;20.50;32.20;;;;;;20580;6818;307268;-71
2022/04/22 10:12:30;;;;;;;13.40;12.45;;;20.70;30.80;;;;;;20598;6818;306322;-71
2022/04/22 10:15:00;;;;;;;13.33;12.37;;;20.80;31.90;;;;;;20811;6818;117487;-71
2022/04/22 10:17:24;;;;;;;14.40;13.40;;;20.70;31.50;;;;;;20598;6818;284799;-71
2022/04/22 10:19:51;;;;;;;13.90;13.00;;;20.70;32.30;;;;;;20600;6818;336231;-71
2022/04/22 10:22:17;;;;;;;14.47;13.57;;;20.90;33.40;;;;;;20597;6818;277666;-71
2022/04/22 10:24:43;;;;;;;14.30;13.32;;;21.50;31.10;;;;;;20596;6818;306436;-71
2022/04/22 10:27:10;;;;;;;13.37;12.40;;;21.40;31.00;;;;;;20790;6818;117995;-71
2022/04/22 10:29:36;;;;;;;13.10;12.20;;;21.40;31.20;;;;;;20806;6818;117529;-72
2022/04/22 10:32:02;;;;;;;12.80;11.90;;;20.80;31.40;;;;;;20805;6818;117760;-72
2022/04/22 10:34:39;;;;;;;15.55;14.27;;;20.80;31.40;;;;;;20594;6818;277736;-72
2022/04/22 10:37:04;;;;;;;13.60;12.60;;;20.80;31.90;;;;;;20787;6818;121098;-72
2022/04/22 10:39:36;;;;;;;13.70;12.60;;;20.80;32.20;;;;;;20803;6818;124642;-72
2022/04/22 10:42:02;;;;;;;13.70;12.70;;;20.50;32.80;;;;;;20797;6818;117530;-71
2022/04/22 10:47:13;;;;;;;13.63;12.43;;;20.50;33.10;;;;;;20784;6818;117630;-72
2022/04/22 10:49:43;;;;;;;12.30;11.50;;;20.50;33.30;;;;;;20810;6818;121597;-71
2022/04/22 10:52:14;;;;;;;13.43;12.43;;;20.50;33.50;;;;;;20797;6818;117315;-72
2022/04/22 10:54:54;;;;;;;12.47;11.67;;;20.60;33.70;;;;;;20802;6818;117516;-72
2022/04/22 10:57:19;;;;;;;14.55;13.45;;;20.60;33.20;;;;;;20574;6818;307530;-72
2022/04/22 10:59:45;;;;;;;12.70;11.90;;;20.90;32.20;;;;;;20587;6818;281739;-72
2022/04/22 11:02:30;;;;;;;13.40;12.50;;;21.10;32.20;;;;;;20800;6816;117174;-71
2022/04/22 11:05:18;;;;;;;13.25;12.35;;;21.20;32.30;;;;;;20591;6817;336356;-72
2022/04/22 11:07:53;;;;;;;12.63;11.73;;;21.30;32.30;;;;;;20799;6817;118524;-73
2022/04/22 11:10:20;;;;;;;13.07;12.17;;;21.40;31.80;;;;;;20591;6818;277452;-72
2022/04/22 11:12:55;;;;;;;12.50;11.60;;;21.40;32.00;;;;;;20808;6818;117287;-72
2022/04/22 11:15:41;;;;;;;13.13;12.03;;;21.30;32.20;;;;;;20782;6818;117494;-72
2022/04/22 11:18:08;;;;;;;13.23;12.17;;;21.20;32.00;;;;;;20805;6818;117752;-72
2022/04/22 11:20:33;;;;;;;11.53;10.73;;;21.10;32.20;;;;;;20796;6818;117561;-71
2022/04/22 11:22:58;;;;;;;12.43;11.53;;;21.00;32.50;;;;;;20547;6818;313264;-73
2022/04/22 11:25:24;;;;;;;10.50;9.90;;;21.10;32.40;;;;;;20803;6818;122117;-71
2022/04/22 11:27:49;;;;;;;12.23;11.40;;;21.20;32.10;;;;;;20551;6818;307291;-71
2022/04/22 11:30:15;;;;;;;12.23;11.43;;;21.40;30.60;;;;;;20582;6818;307153;-72
2022/04/22 11:32:40;;;;;;;11.12;10.40;;;21.60;30.60;;;;;;20600;6818;307276;-72
2022/04/22 11:35:16;;;;;;;11.50;10.77;;;21.70;30.20;;;;;;20551;6818;306816;-72
2022/04/22 11:37:42;;;;;;;12.43;11.38;;;21.80;30.40;;;;;;20561;6818;304974;-71
2022/04/22 11:40:08;;;;;;;11.60;10.60;;;21.90;30.00;;;;;;20804;6818;117480;-71
2022/04/22 11:42:33;;;;;;;11.48;10.57;;;21.80;30.40;;;;;;20797;6818;117534;-72
2022/04/22 11:45:06;;;;;;;10.97;10.30;;;21.30;31.10;;;;;;20766;6818;118044;-72
2022/04/22 11:47:31;;;;;;;10.60;9.70;;;21.30;31.10;;;;;;20804;6818;117540;-73
2022/04/22 11:49:57;;;;;;;10.80;9.87;;;21.20;31.60;;;;;;20804;6818;121177;-73
2022/04/22 11:52:22;;;;;;;11.15;10.43;;;21.10;32.00;;;;;;20599;6818;305356;-72
2022/04/22 11:54:48;;;;;;;12.93;11.53;;;21.30;32.00;;;;;;20811;6818;117525;-72
2022/04/22 11:57:14;;;;;;;11.53;10.73;;;21.40;31.70;;;;;;20772;6818;118035;-73
2022/04/22 11:59:41;;;;;;;11.25;10.55;;;21.40;31.70;;;;;;20585;6818;315182;-72
2022/04/22 12:08:05;;;;;;;10.88;10.07;;;21.30;31.90;;;;;;20597;6818;336535;-72
2022/04/22 12:10:29;;;;;;;9.40;8.83;;;21.40;31.30;;;;;;20802;6818;117449;-72
2022/04/22 12:13:00;;;;;;;10.80;10.10;;;21.40;31.20;;;;;;20593;6816;312263;-72
2022/04/22 12:15:24;;;;;;;10.33;9.30;;;21.60;30.60;;;;;;20798;6817;118097;-72
2022/04/22 12:17:49;;;;;;;9.17;8.53;;;21.60;30.60;;;;;;20809;6817;117801;-72
2022/04/22 12:20:15;;;;;;;10.10;9.50;;;21.50;30.70;;;;;;20806;6818;117392;-72
2022/04/22 12:22:40;;;;;;;11.50;10.50;;;21.30;30.70;;;;;;20593;6818;289458;-72
2022/04/22 12:25:13;;;;;;;23.60;10.15;;;21.40;30.00;;;;;;20580;6818;336227;-73
2022/04/22 12:27:38;;;;;;;22.93;21.10;;;21.70;29.90;;;;;;20593;6818;276892;-72
2022/04/22 12:30:04;;;;;;;10.30;9.00;;;21.90;29.60;;;;;;20805;6818;117308;-72
2022/04/22 12:32:31;;;;;;;10.20;9.27;;;21.80;29.70;;;;;;20565;6818;277292;-72
2022/04/22 12:35:11;;;;;;;9.47;8.87;;;21.80;29.80;;;;;;20801;6818;117807;-72
2022/04/22 12:37:42;;;;;;;9.63;8.73;;;21.70;29.80;;;;;;20803;6818;117087;-73
2022/04/22 12:40:07;;;;;;;10.03;9.23;;;21.40;29.90;;;;;;20595;6818;282217;-72
2022/04/22 12:42:35;;;;;;;10.60;9.97;;;21.50;30.00;;;;;;20593;6818;306691;-72
2022/04/22 12:54:04;;;;;;;10.55;9.65;;;21.50;30.00;;;;;;20602;6818;336554;-72
2022/04/22 12:56:30;;;;;;;11.40;10.70;;;21.80;30.60;;;;;;20597;6818;315455;-72
2022/04/22 12:58:56;;;;;;;10.23;9.23;;;22.00;29.90;;;;;;20804;6818;117266;-72
2022/04/22 13:01:21;;;;;;;10.40;9.77;;;21.90;29.90;;;;;;20575;6818;307267;-72
2022/04/22 13:03:47;;;;;;;9.95;9.25;;;21.90;30.60;;;;;;20787;6818;117333;-72
2022/04/22 13:06:14;;;;;;;9.98;9.38;;;21.90;30.10;;;;;;20593;6818;311005;-72
2022/04/22 13:08:41;;;;;;;9.90;9.27;;;21.90;30.10;;;;;;20594;6818;340870;-71
2022/04/22 13:11:08;;;;;;;9.47;8.87;;;22.10;29.90;;;;;;20786;6818;120818;-72
2022/04/22 13:13:33;;;;;;;10.57;9.57;;;22.00;29.80;;;;;;20804;6818;117403;-72
2022/04/22 13:15:59;;;;;;;10.63;9.83;;;21.70;29.90;;;;;;20588;6818;310018;-72
2022/04/22 13:18:24;;;;;;;10.00;9.40;;;21.70;29.40;;;;;;20804;6818;117319;-72
2022/04/22 13:20:51;;;;;;;9.33;8.73;;;21.70;29.40;;;;;;20600;6818;277281;-72
2022/04/22 13:23:15;;;;;;;9.52;8.88;;;21.70;29.60;;;;;;20784;6818;118116;-72
2022/04/22 13:25:41;;;;;;;9.80;9.20;;;21.70;29.80;;;;;;20807;6816;117331;-71